Time;durP1;ratioP1;P1;durP2;ratioP2;P2;SDS_P1;SDS_P2;PMS_P1;PMS_P2;Temp;Humidity;BMP_temperature;BMP_pressure;BME280_temperature;BME280_humidity;BME280_pressure;Samples;Min_cycle;Max_cycle;Signal;HPM_P1;HPM_P2
2023/06/20 00:00:12;;;;;;;2.37;1.70;;;;;;;;;;6245000;23;20176;-87
2023/06/20 00:02:41;;;;;;;1.80;1.70;;;;;;;;;;6244887;23;20230;-87
2023/06/20 00:05:09;;;;;;;0.80;0.80;;;;;;;;;;6244181;23;20182;-87
2023/06/20 00:07:38;;;;;;;2.07;1.97;;;;;;;;;;6244845;23;20184;-87
2023/06/20 00:10:08;;;;;;;2.63;2.47;;;;;;;;;;6244726;23;20179;-87
2023/06/20 00:12:37;;;;;;;3.27;2.63;;;;;;;;;;6244151;23;20372;-87
2023/06/20 00:15:08;;;;;;;0.30;0.30;;;;;;;;;;6244701;23;20168;-87
2023/06/20 00:17:39;;;;;;;2.40;1.40;;;;;;;;;;6244663;23;20174;-87
2023/06/20 00:20:08;;;;;;;0.83;0.83;;;;;;;;;;6244293;23;20192;-87
2023/06/20 00:22:37;;;;;;;0.30;0.30;;;;;;;;;;6244663;23;20239;-87
2023/06/20 00:25:05;;;;;;;1.20;1.10;;;;;;;;;;6244766;23;20205;-87
2023/06/20 00:27:35;;;;;;;0.43;0.43;;;;;;;;;;6245038;22;20197;-87
2023/06/20 00:30:04;;;;;;;1.03;1.03;;;;;;;;;;6244329;23;20234;-87
2023/06/20 00:32:32;;;;;;;0.60;0.60;;;;;;;;;;6244956;23;20191;-87
2023/06/20 00:35:02;;;;;;;1.70;1.60;;;;;;;;;;6244330;23;20176;-87
2023/06/20 00:37:30;;;;;;;3.03;2.83;;;;;;;;;;6243590;23;20177;-87
2023/06/20 00:39:59;;;;;;;2.67;1.63;;;;;;;;;;6244610;23;20235;-87
2023/06/20 00:42:27;;;;;;;3.53;3.30;;;;;;;;;;6244539;23;20184;-87
2023/06/20 00:44:56;;;;;;;1.50;1.30;;;;;;;;;;6244090;23;20253;-87
2023/06/20 00:47:25;;;;;;;1.40;1.40;;;;;;;;;;6243913;23;20180;-87
2023/06/20 00:49:54;;;;;;;1.57;1.57;;;;;;;;;;6244131;23;20180;-87
2023/06/20 00:52:24;;;;;;;0.73;0.73;;;;;;;;;;6244725;23;20181;-87
2023/06/20 00:54:53;;;;;;;1.57;1.47;;;;;;;;;;6243839;23;20176;-87
2023/06/20 00:57:22;;;;;;;0.80;0.80;;;;;;;;;;6244187;23;20174;-87
2023/06/20 00:59:51;;;;;;;0.67;0.67;;;;;;;;;;6244243;23;20198;-88
2023/06/20 01:02:21;;;;;;;1.70;1.70;;;;;;;;;;6243829;23;20172;-87
2023/06/20 01:04:51;;;;;;;8.33;2.67;;;;;;;;;;6244264;23;20189;-87
2023/06/20 01:07:24;;;;;;;2.10;1.90;;;;;;;;;;6244606;23;20175;-87
2023/06/20 01:09:59;;;;;;;26.50;1.70;;;;;;;;;;6244461;23;20187;-87
2023/06/20 01:12:33;;;;;;;1.93;1.73;;;;;;;;;;6243618;23;20179;-87
2023/06/20 01:15:07;;;;;;;0.93;0.93;;;;;;;;;;6244163;23;20214;-87
2023/06/20 01:17:39;;;;;;;0.77;0.77;;;;;;;;;;6244825;23;20227;-87
2023/06/20 01:20:12;;;;;;;1.60;1.60;;;;;;;;;;6246214;23;20267;-87
2023/06/20 01:22:57;;;;;;;0.67;0.50;;;;;;;;;;6245958;23;20170;-87
2023/06/20 01:25:27;;;;;;;1.63;1.53;;;;;;;;;;6245974;23;20189;-87
2023/06/20 01:28:03;;;;;;;1.03;1.03;;;;;;;;;;6246429;22;20207;-87
2023/06/20 01:30:35;;;;;;;1.17;1.17;;;;;;;;;;6245876;23;20176;-87
2023/06/20 01:33:04;;;;;;;0.90;0.90;;;;;;;;;;6246373;23;20178;-87
2023/06/20 01:35:34;;;;;;;2.87;2.00;;;;;;;;;;6246197;23;20177;-87
2023/06/20 01:38:06;;;;;;;0.33;0.33;;;;;;;;;;6246269;23;20180;-87
2023/06/20 01:40:38;;;;;;;0.53;0.53;;;;;;;;;;6246391;23;20265;-87
2023/06/20 01:43:10;;;;;;;3.63;1.63;;;;;;;;;;6246504;23;20183;-87
2023/06/20 01:45:40;;;;;;;0.83;0.83;;;;;;;;;;6245342;23;20194;-87
2023/06/20 01:48:09;;;;;;;3.60;2.00;;;;;;;;;;6245658;23;20209;-87
2023/06/20 01:50:39;;;;;;;1.47;1.40;;;;;;;;;;6246192;23;20187;-87
2023/06/20 01:56:37;;;;;;;1.37;1.17;;;;;;;;;;6245679;23;20161;-87
2023/06/20 01:59:10;;;;;;;0.40;0.40;;;;;;;;;;6246530;23;20189;-87
2023/06/20 02:01:42;;;;;;;0.30;0.30;;;;;;;;;;6245982;23;20273;-87
2023/06/20 02:04:11;;;;;;;2.47;0.80;;;;;;;;;;6245334;23;20185;-87
2023/06/20 02:06:40;;;;;;;2.23;1.90;;;;;;;;;;6245417;23;20172;-83
2023/06/20 02:09:09;;;;;;;3.53;1.53;;;;;;;;;;6246081;23;20170;-83
2023/06/20 02:11:39;;;;;;;0.97;0.97;;;;;;;;;;6246116;23;20174;-83
2023/06/20 02:14:08;;;;;;;4.27;2.57;;;;;;;;;;6245607;23;20242;-83
2023/06/20 02:34:05;;;;;;;2.30;2.10;;;;;;;;;;6244599;23;20166;-83
2023/06/20 02:36:34;;;;;;;5.37;3.80;;;;;;;;;;6244927;23;20220;-83
2023/06/20 02:39:04;;;;;;;6.53;3.80;;;;;;;;;;6244612;23;20228;-83
2023/06/20 02:41:33;;;;;;;4.47;3.70;;;;;;;;;;6245164;23;20182;-83
2023/06/20 02:44:01;;;;;;;5.27;4.23;;;;;;;;;;6245613;23;20209;-83
2023/06/20 02:46:32;;;;;;;4.63;4.03;;;;;;;;;;6244935;23;20191;-83
2023/06/20 02:49:17;;;;;;;0.40;0.40;;;;;;;;;;6245183;23;20250;-87
2023/06/20 02:51:53;;;;;;;3.43;2.97;;;;;;;;;;6245556;23;20169;-83
2023/06/20 02:54:23;;;;;;;2.00;1.37;;;;;;;;;;6245726;23;20170;-83
2023/06/20 02:56:54;;;;;;;3.37;2.53;;;;;;;;;;6245523;23;20267;-83
2023/06/20 02:59:24;;;;;;;2.40;2.20;;;;;;;;;;6245728;23;20236;-83
2023/06/20 03:01:56;;;;;;;1.53;1.43;;;;;;;;;;6245488;23;20177;-83
2023/06/20 03:04:26;;;;;;;1.60;1.50;;;;;;;;;;6245105;23;20228;-83
2023/06/20 03:06:58;;;;;;;2.23;2.03;;;;;;;;;;6245327;23;20175;-83
2023/06/20 03:09:26;;;;;;;1.40;1.30;;;;;;;;;;6245454;23;20244;-83
2023/06/20 03:11:55;;;;;;;1.90;1.80;;;;;;;;;;6245398;23;20175;-83
2023/06/20 03:14:23;;;;;;;1.20;1.13;;;;;;;;;;6244875;23;20175;-82
2023/06/20 03:16:52;;;;;;;0.50;0.50;;;;;;;;;;6245317;23;20170;-83
2023/06/20 03:19:20;;;;;;;1.07;0.90;;;;;;;;;;6245296;23;20192;-83
2023/06/20 03:21:49;;;;;;;3.20;2.50;;;;;;;;;;6244594;23;20174;-87
2023/06/20 03:24:19;;;;;;;0.63;0.63;;;;;;;;;;6245821;23;20177;-87
2023/06/20 03:26:49;;;;;;;3.40;1.97;;;;;;;;;;6245146;22;20200;-87
2023/06/20 03:29:18;;;;;;;0.30;0.30;;;;;;;;;;6245352;23;20183;-87
2023/06/20 03:31:46;;;;;;;3.87;2.10;;;;;;;;;;6244995;23;20174;-87
2023/06/20 03:34:15;;;;;;;0.93;0.93;;;;;;;;;;6245209;23;20276;-87
2023/06/20 03:36:46;;;;;;;0.50;0.50;;;;;;;;;;6245114;23;20177;-87
2023/06/20 03:39:15;;;;;;;5.83;3.30;;;;;;;;;;6244919;23;20183;-88
2023/06/20 03:41:44;;;;;;;1.50;1.03;;;;;;;;;;6244835;23;20180;-87
2023/06/20 03:44:13;;;;;;;0.40;0.40;;;;;;;;;;6245136;23;20185;-87
2023/06/20 03:46:41;;;;;;;0.67;0.67;;;;;;;;;;6244883;23;20198;-87
2023/06/20 03:49:10;;;;;;;1.23;1.13;;;;;;;;;;6244787;23;20205;-87
2023/06/20 03:51:39;;;;;;;0.50;0.50;;;;;;;;;;6245596;23;20242;-87
2023/06/20 03:54:07;;;;;;;0.50;0.50;;;;;;;;;;6245444;23;20175;-87
2023/06/20 03:56:36;;;;;;;2.37;2.03;;;;;;;;;;6244111;23;20239;-87
2023/06/20 03:59:05;;;;;;;1.00;1.00;;;;;;;;;;6245268;23;20237;-87
2023/06/20 04:01:34;;;;;;;0.83;0.83;;;;;;;;;;6245399;23;20183;-87
2023/06/20 04:04:02;;;;;;;1.33;1.10;;;;;;;;;;6244947;23;20224;-87
2023/06/20 04:06:33;;;;;;;4.17;3.50;;;;;;;;;;6244496;23;20190;-87
2023/06/20 04:09:04;;;;;;;1.50;1.40;;;;;;;;;;6244864;23;20181;-87
2023/06/20 04:11:32;;;;;;;1.40;1.00;;;;;;;;;;6245052;23;20179;-87
2023/06/20 04:14:01;;;;;;;1.43;1.33;;;;;;;;;;6244465;23;20175;-87
2023/06/20 04:16:30;;;;;;;0.70;0.70;;;;;;;;;;6244768;23;20180;-87
2023/06/20 04:18:59;;;;;;;0.40;0.40;;;;;;;;;;6244402;23;20184;-83
2023/06/20 04:21:28;;;;;;;4.50;1.50;;;;;;;;;;6244533;23;20181;-82
2023/06/20 04:23:56;;;;;;;1.47;1.37;;;;;;;;;;6244174;23;20179;-82
2023/06/20 04:26:25;;;;;;;1.27;1.07;;;;;;;;;;6244301;23;20203;-83
2023/06/20 04:28:53;;;;;;;4.93;3.97;;;;;;;;;;6244447;22;20206;-83
2023/06/20 04:31:25;;;;;;;1.53;1.43;;;;;;;;;;6244010;23;20186;-83
2023/06/20 04:33:56;;;;;;;1.50;1.23;;;;;;;;;;6244726;23;20235;-83
2023/06/20 04:36:26;;;;;;;4.10;2.33;;;;;;;;;;6244422;23;20180;-83
2023/06/20 04:38:55;;;;;;;0.83;0.83;;;;;;;;;;6244345;23;20178;-83
2023/06/20 04:41:23;;;;;;;0.20;0.20;;;;;;;;;;6244134;23;20171;-83
2023/06/20 04:43:52;;;;;;;2.67;0.83;;;;;;;;;;6244394;23;20186;-83
2023/06/20 04:46:20;;;;;;;3.17;2.47;;;;;;;;;;6244074;23;20195;-84
2023/06/20 04:48:49;;;;;;;0.30;0.30;;;;;;;;;;6243704;23;20286;-83
2023/06/20 04:51:19;;;;;;;0.70;0.70;;;;;;;;;;6244861;23;20214;-83
2023/06/20 04:53:48;;;;;;;2.90;1.37;;;;;;;;;;6244211;23;20171;-83
2023/06/20 04:56:16;;;;;;;0.53;0.53;;;;;;;;;;6244510;23;20227;-84
2023/06/20 04:58:47;;;;;;;0.30;0.30;;;;;;;;;;6244331;23;20203;-83
2023/06/20 05:01:16;;;;;;;5.87;5.30;;;;;;;;;;6244819;23;20183;-83
2023/06/20 05:03:45;;;;;;;1.90;1.80;;;;;;;;;;6244659;23;20175;-83
2023/06/20 05:06:18;;;;;;;1.57;1.43;;;;;;;;;;6243681;23;20192;-83
2023/06/20 05:08:47;;;;;;;3.53;2.63;;;;;;;;;;6243920;23;20165;-83
2023/06/20 05:11:15;;;;;;;3.10;2.57;;;;;;;;;;6244766;23;20187;-83
2023/06/20 05:13:44;;;;;;;2.93;2.50;;;;;;;;;;6243926;23;20172;-83
2023/06/20 05:16:12;;;;;;;2.83;2.57;;;;;;;;;;6244229;23;20170;-83
2023/06/20 05:18:41;;;;;;;2.17;2.00;;;;;;;;;;6244335;23;20178;-83
2023/06/20 05:21:12;;;;;;;2.70;2.47;;;;;;;;;;6244392;23;20222;-83
2023/06/20 05:23:42;;;;;;;0.30;0.30;;;;;;;;;;6243487;23;20209;-84
2023/06/20 05:26:10;;;;;;;3.93;3.63;;;;;;;;;;6243953;23;20193;-83
2023/06/20 05:28:39;;;;;;;2.63;1.90;;;;;;;;;;6243682;22;20218;-83
2023/06/20 05:31:07;;;;;;;4.37;2.97;;;;;;;;;;6243405;23;20170;-83
2023/06/20 05:33:36;;;;;;;2.20;1.60;;;;;;;;;;6243743;23;20169;-84
2023/06/20 05:36:05;;;;;;;5.33;4.13;;;;;;;;;;6243280;23;20206;-83
2023/06/20 05:38:35;;;;;;;1.83;1.73;;;;;;;;;;6243517;23;20185;-83
2023/06/20 05:41:05;;;;;;;6.77;3.67;;;;;;;;;;6243145;23;20211;-83
2023/06/20 05:43:36;;;;;;;6.07;3.93;;;;;;;;;;6243855;23;20180;-83
2023/06/20 05:46:04;;;;;;;4.97;3.27;;;;;;;;;;6243613;23;20183;-83
2023/06/20 05:48:33;;;;;;;3.73;2.10;;;;;;;;;;6243263;23;20208;-83
2023/06/20 05:51:03;;;;;;;7.53;4.20;;;;;;;;;;6243486;23;20176;-83
2023/06/20 05:53:31;;;;;;;4.07;3.13;;;;;;;;;;6243860;23;20205;-83
2023/06/20 05:56:00;;;;;;;6.37;4.63;;;;;;;;;;6243344;23;20170;-85
2023/06/20 05:58:30;;;;;;;2.47;2.37;;;;;;;;;;6243250;23;20186;-85
2023/06/20 06:00:58;;;;;;;3.17;2.87;;;;;;;;;;6244113;23;20203;-85
2023/06/20 06:03:27;;;;;;;5.10;3.73;;;;;;;;;;6244375;23;20181;-86
2023/06/20 06:05:56;;;;;;;5.00;4.53;;;;;;;;;;6245046;23;20178;-86
2023/06/20 06:08:25;;;;;;;7.10;4.23;;;;;;;;;;6245553;23;20198;-86
2023/06/20 06:10:53;;;;;;;5.80;5.07;;;;;;;;;;6245780;23;20292;-86
2023/06/20 06:13:25;;;;;;;6.53;3.70;;;;;;;;;;6245132;23;20174;-86
2023/06/20 06:15:54;;;;;;;7.67;4.90;;;;;;;;;;6244989;23;20192;-83
2023/06/20 06:18:30;;;;;;;7.67;5.30;;;;;;;;;;6246102;23;20180;-83
2023/06/20 06:20:59;;;;;;;5.33;4.73;;;;;;;;;;6245686;23;20196;-83
2023/06/20 06:23:27;;;;;;;7.47;5.57;;;;;;;;;;6244550;23;20172;-83
2023/06/20 06:25:56;;;;;;;9.37;5.57;;;;;;;;;;6245242;23;20174;-83
2023/06/20 06:28:27;;;;;;;3.67;3.23;;;;;;;;;;6245331;22;20208;-83
2023/06/20 06:30:59;;;;;;;5.40;4.27;;;;;;;;;;6245215;23;20202;-86
2023/06/20 06:33:28;;;;;;;3.37;3.03;;;;;;;;;;6245602;23;20267;-86
2023/06/20 06:35:57;;;;;;;6.93;4.90;;;;;;;;;;6245369;23;20231;-86
2023/06/20 06:38:26;;;;;;;7.13;4.67;;;;;;;;;;6245410;23;20172;-83
2023/06/20 06:40:55;;;;;;;2.77;2.60;;;;;;;;;;6245560;23;20181;-83
2023/06/20 06:43:23;;;;;;;8.17;6.43;;;;;;;;;;6245778;23;20226;-83
2023/06/20 06:45:52;;;;;;;10.80;6.50;;;;;;;;;;6245101;23;20179;-83
2023/06/20 06:48:22;;;;;;;4.23;2.93;;;;;;;;;;6244664;23;20256;-84
2023/06/20 06:50:50;;;;;;;3.93;3.10;;;;;;;;;;6245560;23;20169;-83
2023/06/20 06:53:19;;;;;;;7.43;5.07;;;;;;;;;;6245491;23;20187;-83
2023/06/20 06:55:48;;;;;;;5.20;4.07;;;;;;;;;;6244922;23;20173;-82
2023/06/20 06:58:16;;;;;;;4.70;3.87;;;;;;;;;;6245061;23;20198;-82
2023/06/20 07:00:45;;;;;;;5.23;3.57;;;;;;;;;;6245305;23;20177;-81
2023/06/20 07:03:15;;;;;;;9.07;7.50;;;;;;;;;;6245472;23;20184;-82
2023/06/20 07:05:45;;;;;;;9.13;6.97;;;;;;;;;;6245339;23;20180;-82
2023/06/20 07:08:13;;;;;;;6.83;5.33;;;;;;;;;;6245584;23;20191;-82
2023/06/20 07:10:42;;;;;;;15.63;5.70;;;;;;;;;;6245270;23;20179;-82
2023/06/20 07:13:10;;;;;;;6.60;4.43;;;;;;;;;;6245485;23;20167;-82
2023/06/20 07:15:39;;;;;;;5.40;4.40;;;;;;;;;;6244251;23;20230;-82
2023/06/20 07:18:08;;;;;;;8.80;4.27;;;;;;;;;;6245196;23;20168;-82
2023/06/20 07:20:37;;;;;;;4.53;4.13;;;;;;;;;;6245458;23;20271;-82
2023/06/20 07:23:07;;;;;;;6.67;4.53;;;;;;;;;;6244489;23;20179;-83
2023/06/20 07:25:35;;;;;;;11.23;6.97;;;;;;;;;;6244685;23;20180;-83
2023/06/20 07:28:04;;;;;;;6.97;5.83;;;;;;;;;;6244962;22;20211;-82
2023/06/20 07:30:33;;;;;;;8.10;6.67;;;;;;;;;;6244809;23;20208;-81
2023/06/20 07:33:01;;;;;;;3.17;2.87;;;;;;;;;;6244038;23;20173;-81
2023/06/20 07:35:30;;;;;;;7.20;5.77;;;;;;;;;;6244747;23;20199;-81
2023/06/20 07:37:58;;;;;;;8.43;6.13;;;;;;;;;;6245094;23;20198;-81
2023/06/20 07:40:28;;;;;;;5.10;4.33;;;;;;;;;;6244608;23;20227;-81
2023/06/20 07:42:56;;;;;;;6.30;5.73;;;;;;;;;;6245095;23;20177;-81
2023/06/20 07:45:25;;;;;;;5.17;4.60;;;;;;;;;;6244414;23;20181;-81
2023/06/20 07:47:54;;;;;;;5.90;5.27;;;;;;;;;;6244975;23;20231;-81
2023/06/20 07:50:22;;;;;;;5.43;4.13;;;;;;;;;;6244035;23;20174;-82
2023/06/20 07:52:51;;;;;;;5.87;5.27;;;;;;;;;;6244681;23;20177;-80
2023/06/20 07:55:20;;;;;;;5.97;4.30;;;;;;;;;;6245341;23;20251;-84
2023/06/20 07:57:59;;;;;;;4.13;2.10;;;;;;;;;;6244156;23;20166;-80
2023/06/20 08:00:28;;;;;;;16.47;5.70;;;;;;;;;;6244728;23;20173;-80
2023/06/20 08:02:57;;;;;;;6.10;5.10;;;;;;;;;;6244555;23;20188;-80
2023/06/20 08:05:25;;;;;;;3.20;2.90;;;;;;;;;;6244647;23;20192;-80
2023/06/20 08:07:54;;;;;;;7.13;5.37;;;;;;;;;;6244106;23;20186;-81
2023/06/20 08:10:23;;;;;;;0.93;0.93;;;;;;;;;;6244110;23;20171;-81
2023/06/20 08:12:52;;;;;;;2.47;2.33;;;;;;;;;;6244948;23;20179;-82
2023/06/20 08:15:24;;;;;;;7.10;4.70;;;;;;;;;;6244286;23;20181;-81
2023/06/20 08:17:53;;;;;;;8.60;6.80;;;;;;;;;;6244711;23;20198;-82
2023/06/20 08:20:24;;;;;;;2.87;2.67;;;;;;;;;;6244925;23;20273;-82
2023/06/20 08:22:53;;;;;;;9.63;7.13;;;;;;;;;;6244614;23;20175;-82
2023/06/20 08:25:21;;;;;;;7.43;5.73;;;;;;;;;;6243956;23;20198;-81
2023/06/20 08:27:50;;;;;;;4.73;3.77;;;;;;;;;;6243940;22;20280;-82
2023/06/20 08:30:34;;;;;;;3.47;3.17;;;;;;;;;;6244935;23;20175;-82
2023/06/20 08:33:03;;;;;;;11.07;8.07;;;;;;;;;;6244393;23;20249;-81
2023/06/20 08:35:32;;;;;;;10.23;6.10;;;;;;;;;;6244848;23;20179;-81
2023/06/20 08:38:00;;;;;;;6.07;4.87;;;;;;;;;;6244178;23;20273;-84
2023/06/20 08:40:30;;;;;;;3.13;2.83;;;;;;;;;;6244342;23;20179;-81
2023/06/20 08:42:59;;;;;;;3.40;3.10;;;;;;;;;;6244170;23;20174;-82
2023/06/20 08:45:28;;;;;;;10.20;6.27;;;;;;;;;;6244273;23;20177;-82
2023/06/20 08:47:58;;;;;;;12.13;6.90;;;;;;;;;;6244575;23;20207;-81
2023/06/20 08:50:27;;;;;;;7.53;6.03;;;;;;;;;;6243865;23;20179;-81
2023/06/20 08:52:59;;;;;;;2.97;2.47;;;;;;;;;;6244677;23;20168;-82
2023/06/20 08:55:29;;;;;;;1.93;1.67;;;;;;;;;;6244469;23;20193;-81
2023/06/20 08:57:57;;;;;;;6.83;5.10;;;;;;;;;;6244127;23;20185;-82
2023/06/20 09:00:26;;;;;;;1.03;1.03;;;;;;;;;;6244062;23;20255;-82
2023/06/20 09:02:56;;;;;;;5.90;3.50;;;;;;;;;;6244502;23;20181;-81
2023/06/20 09:05:26;;;;;;;2.33;2.23;;;;;;;;;;6243835;23;20177;-81
2023/06/20 09:07:55;;;;;;;8.20;5.57;;;;;;;;;;6243512;23;20221;-82
2023/06/20 09:10:24;;;;;;;4.33;3.93;;;;;;;;;;6244541;23;20204;-81
2023/06/20 09:12:54;;;;;;;4.00;3.60;;;;;;;;;;6244138;23;20205;-82
2023/06/20 09:15:23;;;;;;;4.60;4.13;;;;;;;;;;6243770;23;20224;-82
2023/06/20 09:17:52;;;;;;;4.33;3.50;;;;;;;;;;6243952;23;20176;-82
2023/06/20 09:20:22;;;;;;;11.67;8.13;;;;;;;;;;6244411;23;20181;-81
2023/06/20 09:22:52;;;;;;;14.47;9.20;;;;;;;;;;6243908;23;20179;-82
2023/06/20 09:25:25;;;;;;;8.93;7.23;;;;;;;;;;6243815;23;20184;-81
2023/06/20 09:27:54;;;;;;;7.67;5.77;;;;;;;;;;6243813;22;20220;-81
2023/06/20 09:30:23;;;;;;;4.47;4.07;;;;;;;;;;6243880;23;20255;-82
2023/06/20 09:32:53;;;;;;;7.00;5.47;;;;;;;;;;6244193;23;20185;-81
2023/06/20 09:35:22;;;;;;;8.80;7.47;;;;;;;;;;6243657;23;20177;-82
2023/06/20 09:37:53;;;;;;;15.23;8.87;;;;;;;;;;6243921;23;20188;-87
2023/06/20 09:40:25;;;;;;;8.47;7.43;;;;;;;;;;6245301;23;20176;-87
2023/06/20 09:42:57;;;;;;;7.97;7.17;;;;;;;;;;6246089;23;20177;-87
2023/06/20 09:45:26;;;;;;;15.40;6.70;;;;;;;;;;6246831;23;20177;-87
2023/06/20 09:47:56;;;;;;;7.63;6.87;;;;;;;;;;6246125;23;20205;-87
2023/06/20 09:50:25;;;;;;;14.60;7.23;;;;;;;;;;6245939;23;20205;-87
2023/06/20 09:53:00;;;;;;;9.03;6.07;;;;;;;;;;6246147;23;20177;-88
2023/06/20 09:55:28;;;;;;;6.83;5.80;;;;;;;;;;6245983;23;20180;-88
2023/06/20 09:57:59;;;;;;;6.77;4.90;;;;;;;;;;6245806;23;20265;-88
2023/06/20 10:00:29;;;;;;;12.00;8.53;;;;;;;;;;6245785;23;20188;-87
2023/06/20 10:03:00;;;;;;;10.33;7.37;;;;;;;;;;6246134;23;20187;-87
2023/06/20 10:05:29;;;;;;;3.90;3.60;;;;;;;;;;6246418;23;20184;-87
2023/06/20 10:07:59;;;;;;;15.00;9.50;;;;;;;;;;6245698;23;20169;-87
2023/06/20 10:10:28;;;;;;;12.27;6.50;;;;;;;;;;6246684;23;20194;-86
2023/06/20 10:12:58;;;;;;;15.40;9.87;;;;;;;;;;6246412;23;20187;-88
2023/06/20 10:15:27;;;;;;;5.00;4.27;;;;;;;;;;6245693;23;20202;-87
2023/06/20 10:17:55;;;;;;;9.73;7.23;;;;;;;;;;6246283;23;20184;-88
2023/06/20 10:20:25;;;;;;;12.00;8.40;;;;;;;;;;6246757;23;20181;-88
2023/06/20 10:22:58;;;;;;;11.37;8.93;;;;;;;;;;6246234;23;20173;-87
2023/06/20 10:25:29;;;;;;;6.60;3.83;;;;;;;;;;6246002;23;20263;-88
2023/06/20 10:27:58;;;;;;;5.53;5.03;;;;;;;;;;6246020;22;20196;-88
2023/06/20 10:30:46;;;;;;;6.27;5.63;;;;;;;;;;6245729;23;20193;-88
2023/06/20 10:33:15;;;;;;;16.10;8.73;;;;;;;;;;6245752;23;20229;-88
2023/06/20 10:35:49;;;;;;;11.70;10.07;;;;;;;;;;6245796;23;20180;-88
2023/06/20 10:38:18;;;;;;;10.40;8.10;;;;;;;;;;6245543;23;20178;-88
2023/06/20 10:40:48;;;;;;;8.77;6.90;;;;;;;;;;6245441;23;20170;-87
2023/06/20 10:43:17;;;;;;;12.10;8.43;;;;;;;;;;6245453;23;20200;-88
2023/06/20 10:45:57;;;;;;;12.93;9.97;;;;;;;;;;6245255;23;20173;-88
2023/06/20 10:48:26;;;;;;;6.27;4.60;;;;;;;;;;6245350;23;20236;-88
2023/06/20 10:51:00;;;;;;;6.40;5.87;;;;;;;;;;6245190;23;20201;-88
2023/06/20 10:53:29;;;;;;;9.90;6.67;;;;;;;;;;6245983;23;20186;-88
2023/06/20 10:55:59;;;;;;;7.37;4.70;;;;;;;;;;6245267;23;20169;-88
2023/06/20 10:58:27;;;;;;;19.77;10.80;;;;;;;;;;6245977;23;20178;-88
2023/06/20 11:01:01;;;;;;;6.37;5.77;;;;;;;;;;6245652;23;20228;-88
2023/06/20 11:03:30;;;;;;;10.17;6.33;;;;;;;;;;6245472;23;20178;-88
2023/06/20 11:05:59;;;;;;;12.03;8.57;;;;;;;;;;6245425;23;20165;-88
2023/06/20 11:08:28;;;;;;;4.90;3.00;;;;;;;;;;6245189;23;20178;-88
2023/06/20 11:11:01;;;;;;;7.63;5.40;;;;;;;;;;6245686;23;20186;-88
2023/06/20 11:13:30;;;;;;;4.73;3.97;;;;;;;;;;6245726;23;20174;-87
2023/06/20 11:15:58;;;;;;;4.57;4.00;;;;;;;;;;6245102;23;20180;-87
2023/06/20 11:18:27;;;;;;;7.87;6.93;;;;;;;;;;6245367;23;20185;-87
2023/06/20 11:20:58;;;;;;;14.07;9.60;;;;;;;;;;6245273;23;20173;-86
2023/06/20 11:23:34;;;;;;;9.30;7.90;;;;;;;;;;6245190;23;20178;-87
2023/06/20 11:26:07;;;;;;;8.97;5.97;;;;;;;;;;6243963;23;20185;-86
2023/06/20 11:28:37;;;;;;;5.37;4.67;;;;;;;;;;6246601;22;20189;-86
2023/06/20 11:31:11;;;;;;;4.67;3.37;;;;;;;;;;6246506;23;20224;-83
2023/06/20 11:33:40;;;;;;;4.37;2.77;;;;;;;;;;6245541;23;20173;-84
2023/06/20 11:36:08;;;;;;;11.97;7.33;;;;;;;;;;6246126;23;20233;-83
2023/06/20 11:38:40;;;;;;;10.33;6.20;;;;;;;;;;6243790;23;20177;-83
2023/06/20 11:41:10;;;;;;;1.77;1.60;;;;;;;;;;6239364;23;20197;-83
2023/06/20 11:43:39;;;;;;;8.27;6.23;;;;;;;;;;6242933;23;20176;-85
2023/06/20 11:46:08;;;;;;;6.00;4.90;;;;;;;;;;6244872;23;20174;-85
2023/06/20 11:48:37;;;;;;;4.37;3.40;;;;;;;;;;6243254;23;20202;-83
2023/06/20 11:51:07;;;;;;;8.13;6.33;;;;;;;;;;6243117;23;20207;-82
2023/06/20 11:53:37;;;;;;;5.20;3.90;;;;;;;;;;6243092;23;20188;-82
2023/06/20 11:56:07;;;;;;;3.67;3.33;;;;;;;;;;6243837;23;20188;-84
2023/06/20 11:58:40;;;;;;;6.57;3.20;;;;;;;;;;6243536;23;20176;-83
2023/06/20 12:01:10;;;;;;;8.43;3.50;;;;;;;;;;6243085;23;20174;-83
2023/06/20 12:03:41;;;;;;;8.07;5.27;;;;;;;;;;6244580;23;20197;-82
2023/06/20 12:06:29;;;;;;;4.70;3.63;;;;;;;;;;6243587;23;20177;-83
2023/06/20 12:08:58;;;;;;;3.60;3.30;;;;;;;;;;6243458;23;20174;-82
2023/06/20 12:11:27;;;;;;;2.23;2.03;;;;;;;;;;6244535;23;20197;-83
2023/06/20 12:13:57;;;;;;;2.20;2.00;;;;;;;;;;6243992;23;20187;-82
2023/06/20 12:16:26;;;;;;;8.47;5.60;;;;;;;;;;6244004;23;20209;-82
2023/06/20 12:18:59;;;;;;;4.40;3.53;;;;;;;;;;6243243;23;20264;-81
2023/06/20 12:21:27;;;;;;;3.73;2.63;;;;;;;;;;6242769;23;20178;-80
2023/06/20 12:23:56;;;;;;;6.10;5.27;;;;;;;;;;6243641;23;20173;-81
2023/06/20 12:26:25;;;;;;;12.93;3.63;;;;;;;;;;6243526;23;20204;-83
2023/06/20 12:28:53;;;;;;;1.43;1.33;;;;;;;;;;6244324;22;20201;-81
2023/06/20 12:31:24;;;;;;;4.37;2.77;;;;;;;;;;6244621;23;20200;-80
2023/06/20 12:33:52;;;;;;;3.83;2.43;;;;;;;;;;6243796;23;20297;-80
2023/06/20 12:36:21;;;;;;;2.90;2.50;;;;;;;;;;6242590;23;20173;-80
2023/06/20 12:38:50;;;;;;;6.20;5.43;;;;;;;;;;6243463;23;20272;-80
2023/06/20 12:41:18;;;;;;;7.27;6.57;;;;;;;;;;6243444;23;20166;-81
2023/06/20 12:43:50;;;;;;;4.93;3.90;;;;;;;;;;6242596;23;20193;-81
2023/06/20 12:46:19;;;;;;;1.53;1.43;;;;;;;;;;6243625;23;20276;-82
2023/06/20 12:48:51;;;;;;;3.43;3.07;;;;;;;;;;6243642;23;20205;-82
2023/06/20 12:51:19;;;;;;;5.17;4.40;;;;;;;;;;6242179;23;20189;-80
2023/06/20 12:53:49;;;;;;;3.30;1.63;;;;;;;;;;6243560;23;20174;-81
2023/06/20 12:56:18;;;;;;;6.07;5.07;;;;;;;;;;6244778;23;20180;-82
2023/06/20 12:58:46;;;;;;;6.17;5.57;;;;;;;;;;6244731;23;20318;-83
2023/06/20 13:01:15;;;;;;;5.70;5.20;;;;;;;;;;6243766;23;20183;-82
2023/06/20 13:03:44;;;;;;;3.87;2.33;;;;;;;;;;6244300;23;20181;-83
2023/06/20 13:06:15;;;;;;;4.27;2.70;;;;;;;;;;6243866;23;20173;-81
2023/06/20 13:08:44;;;;;;;6.97;5.80;;;;;;;;;;6242638;23;20178;-85
2023/06/20 13:11:15;;;;;;;2.20;1.77;;;;;;;;;;6236867;23;20199;-83
2023/06/20 13:13:45;;;;;;;4.70;2.83;;;;;;;;;;6240621;23;20204;-84
2023/06/20 13:16:15;;;;;;;5.90;4.07;;;;;;;;;;6242427;23;20260;-83
2023/06/20 13:18:46;;;;;;;5.93;5.33;;;;;;;;;;6243056;23;20180;-82
2023/06/20 13:21:16;;;;;;;5.73;4.70;;;;;;;;;;6242767;23;20166;-83
2023/06/20 13:23:50;;;;;;;3.30;2.47;;;;;;;;;;6242728;23;20173;-84
2023/06/20 13:26:36;;;;;;;3.77;3.30;;;;;;;;;;6242712;23;20170;-82
2023/06/20 13:29:05;;;;;;;3.70;2.30;;;;;;;;;;6242877;23;20189;-83
2023/06/20 13:31:35;;;;;;;4.67;4.27;;;;;;;;;;6242878;23;20189;-83
2023/06/20 13:34:04;;;;;;;5.53;4.63;;;;;;;;;;6243365;23;20176;-84
2023/06/20 13:36:35;;;;;;;4.67;4.27;;;;;;;;;;6242755;23;20177;-85
2023/06/20 13:39:05;;;;;;;3.80;3.40;;;;;;;;;;6244301;23;20178;-84
2023/06/20 13:41:36;;;;;;;8.40;4.40;;;;;;;;;;6243284;23;20212;-83
2023/06/20 13:44:05;;;;;;;1.60;1.50;;;;;;;;;;6242475;23;20177;-83
2023/06/20 13:46:35;;;;;;;1.90;1.67;;;;;;;;;;6243592;23;20181;-84
2023/06/20 13:49:03;;;;;;;4.70;4.27;;;;;;;;;;6242552;23;20209;-82
2023/06/20 13:51:39;;;;;;;2.23;2.03;;;;;;;;;;6242025;23;20224;-82
2023/06/20 13:54:07;;;;;;;3.63;2.93;;;;;;;;;;6242910;23;20169;-83
2023/06/20 13:56:36;;;;;;;1.70;1.33;;;;;;;;;;6243910;23;20197;-82
2023/06/20 13:59:06;;;;;;;8.27;2.93;;;;;;;;;;6242605;23;20174;-83
2023/06/20 14:01:39;;;;;;;2.30;2.10;;;;;;;;;;6242430;23;20177;-83
2023/06/20 14:04:08;;;;;;;2.90;2.13;;;;;;;;;;6243195;23;20232;-83
2023/06/20 14:06:38;;;;;;;6.07;4.57;;;;;;;;;;6243309;23;20166;-82
2023/06/20 14:09:07;;;;;;;5.03;4.23;;;;;;;;;;6242797;23;20177;-82
2023/06/20 14:11:36;;;;;;;1.53;1.43;;;;;;;;;;6242955;23;20193;-83
2023/06/20 14:14:06;;;;;;;1.53;1.43;;;;;;;;;;6242721;23;20177;-83
2023/06/20 14:16:35;;;;;;;1.87;1.77;;;;;;;;;;6244007;23;20212;-83
2023/06/20 14:19:04;;;;;;;0.27;0.27;;;;;;;;;;6243763;23;20185;-82
2023/06/20 14:21:32;;;;;;;3.37;2.00;;;;;;;;;;6242963;23;20174;-82
2023/06/20 14:24:02;;;;;;;2.23;1.77;;;;;;;;;;6243004;23;20182;-81
2023/06/20 14:26:32;;;;;;;4.27;3.77;;;;;;;;;;6242424;23;20188;-81
2023/06/20 14:29:00;;;;;;;4.60;4.17;;;;;;;;;;6242594;22;20212;-82
2023/06/20 14:31:29;;;;;;;5.53;3.80;;;;;;;;;;6241436;23;20197;-84
2023/06/20 14:34:01;;;;;;;2.93;2.07;;;;;;;;;;6241654;23;20177;-84
2023/06/20 14:36:30;;;;;;;7.63;5.07;;;;;;;;;;6241906;23;20178;-82
2023/06/20 14:38:59;;;;;;;5.03;4.03;;;;;;;;;;6241076;23;20178;-82
2023/06/20 14:41:29;;;;;;;1.70;1.60;;;;;;;;;;6242089;23;20229;-84
2023/06/20 14:43:58;;;;;;;2.07;1.87;;;;;;;;;;6241498;23;20174;-84
2023/06/20 14:46:29;;;;;;;2.40;2.20;;;;;;;;;;6241631;23;20178;-82
2023/06/20 14:48:58;;;;;;;1.80;1.60;;;;;;;;;;6242872;23;20208;-84
2023/06/20 14:51:26;;;;;;;5.67;2.37;;;;;;;;;;6241642;23;20259;-85
2023/06/20 14:53:55;;;;;;;4.10;3.00;;;;;;;;;;6242527;23;20182;-81
2023/06/20 14:56:23;;;;;;;4.33;3.10;;;;;;;;;;6242301;23;20198;-83
2023/06/20 14:58:54;;;;;;;7.07;3.23;;;;;;;;;;6242636;23;20261;-86
2023/06/20 15:01:29;;;;;;;2.70;2.00;;;;;;;;;;6241363;23;20174;-86
2023/06/20 15:03:58;;;;;;;6.30;2.30;;;;;;;;;;6242647;23;20165;-85
2023/06/20 15:06:27;;;;;;;6.77;4.13;;;;;;;;;;6242597;23;20177;-85
2023/06/20 15:08:55;;;;;;;4.67;1.97;;;;;;;;;;6241257;23;20263;-85
2023/06/20 15:11:24;;;;;;;7.13;3.90;;;;;;;;;;6242141;23;20201;-83
2023/06/20 15:13:54;;;;;;;2.47;1.27;;;;;;;;;;6242291;23;20181;-83
2023/06/20 15:16:22;;;;;;;6.80;3.13;;;;;;;;;;6242272;23;20166;-83